Terminal Aerodrome Forecast
Issued by NWS

Home | Current Version | Previous Version | Text Only | Print | Product List | Glossary On
Versions: 1 2 3 4 5 6 7 8 9 10 11 12 13 14
000
FTUS46 KMTR 232300 RRA
TAFSJC
TAF
KSJC 232342Z 2400/2424 28004KT P6SM SCT250
     FM240300 00000KT P6SM SCT250
     FM241200 26004KT P6SM SCT250
     FM241900 29008KT P6SM SCT250=

USA.gov is the U.S. government's official web portal to all federal, state and local government web resources and services.